sensor_id;sensor_type;location;lat;lon;timestamp;P1;durP1;ratioP1;P2;durP2;ratioP2
65871;SDS011;52653;50.080;21.992;2023-05-10T00:01:33;25.00;;;16.00;;
65871;SDS011;52653;50.080;21.992;2023-05-10T00:04:26;21.60;;;15.50;;
65871;SDS011;52653;50.080;21.992;2023-05-10T00:07:18;24.50;;;17.10;;
65871;SDS011;52653;50.080;21.992;2023-05-10T00:10:01;26.00;;;16.60;;
65871;SDS011;52653;50.080;21.992;2023-05-10T00:12:56;23.30;;;16.70;;
65871;SDS011;52653;50.080;21.992;2023-05-10T00:15:49;26.70;;;17.10;;
65871;SDS011;52653;50.080;21.992;2023-05-10T00:18:31;25.10;;;17.10;;
65871;SDS011;52653;50.080;21.992;2023-05-10T00:21:24;22.90;;;15.60;;
65871;SDS011;52653;50.080;21.992;2023-05-10T00:24:11;24.50;;;16.00;;
65871;SDS011;52653;50.080;21.992;2023-05-10T00:26:57;23.70;;;15.80;;
65871;SDS011;52653;50.080;21.992;2023-05-10T00:29:50;24.20;;;15.60;;
65871;SDS011;52653;50.080;21.992;2023-05-10T00:32:43;21.20;;;14.40;;
65871;SDS011;52653;50.080;21.992;2023-05-10T00:35:37;21.70;;;15.00;;
65871;SDS011;52653;50.080;21.992;2023-05-10T00:38:30;19.30;;;14.30;;
65871;SDS011;52653;50.080;21.992;2023-05-10T00:41:23;23.70;;;14.50;;
65871;SDS011;52653;50.080;21.992;2023-05-10T00:44:16;20.60;;;13.90;;
65871;SDS011;52653;50.080;21.992;2023-05-10T00:47:09;22.00;;;14.30;;
65871;SDS011;52653;50.080;21.992;2023-05-10T00:50:01;19.90;;;13.60;;
65871;SDS011;52653;50.080;21.992;2023-05-10T00:52:56;19.70;;;13.90;;
65871;SDS011;52653;50.080;21.992;2023-05-10T00:55:42;21.30;;;13.90;;
65871;SDS011;52653;50.080;21.992;2023-05-10T00:58:35;22.40;;;13.80;;
65871;SDS011;52653;50.080;21.992;2023-05-10T01:01:22;20.50;;;13.50;;
65871;SDS011;52653;50.080;21.992;2023-05-10T01:04:15;19.90;;;13.60;;
65871;SDS011;52653;50.080;21.992;2023-05-10T01:07:02;22.40;;;13.70;;
65871;SDS011;52653;50.080;21.992;2023-05-10T01:09:42;18.50;;;12.60;;
65871;SDS011;52653;50.080;21.992;2023-05-10T01:12:38;20.30;;;12.80;;
65871;SDS011;52653;50.080;21.992;2023-05-10T01:15:33;17.70;;;12.50;;
65871;SDS011;52653;50.080;21.992;2023-05-10T01:18:21;18.10;;;11.70;;
65871;SDS011;52653;50.080;21.992;2023-05-10T01:21:17;19.00;;;11.70;;
65871;SDS011;52653;50.080;21.992;2023-05-10T01:24:19;19.00;;;11.90;;
65871;SDS011;52653;50.080;21.992;2023-05-10T01:28:06;19.00;;;12.30;;
65871;SDS011;52653;50.080;21.992;2023-05-10T01:31:06;19.30;;;12.00;;
65871;SDS011;52653;50.080;21.992;2023-05-10T01:34:16;18.70;;;12.00;;
65871;SDS011;52653;50.080;21.992;2023-05-10T01:37:19;18.00;;;12.00;;
65871;SDS011;52653;50.080;21.992;2023-05-10T01:40:18;18.80;;;11.50;;
65871;SDS011;52653;50.080;21.992;2023-05-10T01:43:17;18.80;;;10.90;;
65871;SDS011;52653;50.080;21.992;2023-05-10T01:46:14;19.00;;;11.50;;
65871;SDS011;52653;50.080;21.992;2023-05-10T01:52:15;16.70;;;10.90;;
65871;SDS011;52653;50.080;21.992;2023-05-10T01:55:13;15.90;;;11.20;;
65871;SDS011;52653;50.080;21.992;2023-05-10T02:00:50;16.50;;;10.80;;
65871;SDS011;52653;50.080;21.992;2023-05-10T02:03:36;15.30;;;10.80;;
65871;SDS011;52653;50.080;21.992;2023-05-10T02:06:22;15.60;;;10.60;;
65871;SDS011;52653;50.080;21.992;2023-05-10T02:08:57;19.20;;;10.80;;
65871;SDS011;52653;50.080;21.992;2023-05-10T02:11:51;17.80;;;10.90;;
65871;SDS011;52653;50.080;21.992;2023-05-10T02:14:44;17.40;;;10.30;;
65871;SDS011;52653;50.080;21.992;2023-05-10T02:17:38;17.40;;;10.80;;
65871;SDS011;52653;50.080;21.992;2023-05-10T02:20:32;17.70;;;10.80;;
65871;SDS011;52653;50.080;21.992;2023-05-10T02:23:27;19.50;;;12.20;;
65871;SDS011;52653;50.080;21.992;2023-05-10T02:26:10;17.20;;;10.80;;
65871;SDS011;52653;50.080;21.992;2023-05-10T02:29:06;16.90;;;11.00;;
65871;SDS011;52653;50.080;21.992;2023-05-10T02:31:55;16.00;;;10.80;;
65871;SDS011;52653;50.080;21.992;2023-05-10T02:34:51;17.60;;;11.70;;
65871;SDS011;52653;50.080;21.992;2023-05-10T02:37:45;16.20;;;11.10;;
65871;SDS011;52653;50.080;21.992;2023-05-10T02:40:41;16.70;;;11.10;;
65871;SDS011;52653;50.080;21.992;2023-05-10T02:43:35;15.20;;;11.10;;
65871;SDS011;52653;50.080;21.992;2023-05-10T02:46:30;15.90;;;10.90;;
65871;SDS011;52653;50.080;21.992;2023-05-10T02:49:23;14.50;;;10.60;;
65871;SDS011;52653;50.080;21.992;2023-05-10T02:52:06;15.70;;;11.20;;
65871;SDS011;52653;50.080;21.992;2023-05-10T02:55:02;17.80;;;11.30;;
65871;SDS011;52653;50.080;21.992;2023-05-10T02:58:01;15.80;;;10.90;;
65871;SDS011;52653;50.080;21.992;2023-05-10T03:00:53;13.70;;;10.60;;
65871;SDS011;52653;50.080;21.992;2023-05-10T03:03:49;17.30;;;11.20;;
65871;SDS011;52653;50.080;21.992;2023-05-10T03:06:42;16.70;;;10.90;;
65871;SDS011;52653;50.080;21.992;2023-05-10T03:09:35;14.70;;;10.20;;
65871;SDS011;52653;50.080;21.992;2023-05-10T03:12:31;16.80;;;10.90;;
65871;SDS011;52653;50.080;21.992;2023-05-10T03:15:40;15.20;;;10.50;;
65871;SDS011;52653;50.080;21.992;2023-05-10T03:18:40;16.30;;;10.90;;
65871;SDS011;52653;50.080;21.992;2023-05-10T03:21:35;16.00;;;11.00;;
65871;SDS011;52653;50.080;21.992;2023-05-10T03:24:32;16.90;;;11.10;;
65871;SDS011;52653;50.080;21.992;2023-05-10T03:27:30;16.50;;;11.10;;
65871;SDS011;52653;50.080;21.992;2023-05-10T03:30:16;17.20;;;10.70;;
65871;SDS011;52653;50.080;21.992;2023-05-10T03:33:11;15.00;;;10.80;;
65871;SDS011;52653;50.080;21.992;2023-05-10T03:36:04;16.10;;;10.80;;
65871;SDS011;52653;50.080;21.992;2023-05-10T03:38:59;15.50;;;11.50;;
65871;SDS011;52653;50.080;21.992;2023-05-10T03:41:52;18.20;;;11.50;;
65871;SDS011;52653;50.080;21.992;2023-05-10T03:44:44;14.50;;;10.30;;
65871;SDS011;52653;50.080;21.992;2023-05-10T03:47:21;18.40;;;11.20;;
65871;SDS011;52653;50.080;21.992;2023-05-10T03:50:15;16.00;;;10.90;;
65871;SDS011;52653;50.080;21.992;2023-05-10T03:53:08;17.70;;;10.80;;
65871;SDS011;52653;50.080;21.992;2023-05-10T03:56:02;17.40;;;10.90;;
65871;SDS011;52653;50.080;21.992;2023-05-10T03:58:55;15.20;;;10.70;;
65871;SDS011;52653;50.080;21.992;2023-05-10T04:01:49;17.70;;;11.80;;
65871;SDS011;52653;50.080;21.992;2023-05-10T04:04:42;16.20;;;12.10;;
65871;SDS011;52653;50.080;21.992;2023-05-10T04:07:35;19.70;;;11.50;;
65871;SDS011;52653;50.080;21.992;2023-05-10T04:10:28;17.10;;;11.40;;
65871;SDS011;52653;50.080;21.992;2023-05-10T04:13:24;16.70;;;11.40;;
65871;SDS011;52653;50.080;21.992;2023-05-10T04:16:16;17.10;;;11.20;;
65871;SDS011;52653;50.080;21.992;2023-05-10T04:19:11;16.00;;;11.50;;
65871;SDS011;52653;50.080;21.992;2023-05-10T04:22:04;16.20;;;10.60;;
65871;SDS011;52653;50.080;21.992;2023-05-10T04:24:57;17.30;;;11.90;;
65871;SDS011;52653;50.080;21.992;2023-05-10T04:27:50;16.70;;;10.80;;
65871;SDS011;52653;50.080;21.992;2023-05-10T04:30:35;15.10;;;11.50;;
65871;SDS011;52653;50.080;21.992;2023-05-10T04:33:28;16.90;;;10.80;;
65871;SDS011;52653;50.080;21.992;2023-05-10T04:36:21;13.80;;;9.80;;
65871;SDS011;52653;50.080;21.992;2023-05-10T04:38:59;15.30;;;9.90;;
65871;SDS011;52653;50.080;21.992;2023-05-10T04:41:53;15.10;;;9.90;;
65871;SDS011;52653;50.080;21.992;2023-05-10T04:44:46;13.90;;;9.40;;
65871;SDS011;52653;50.080;21.992;2023-05-10T04:47:38;12.90;;;8.90;;
65871;SDS011;52653;50.080;21.992;2023-05-10T04:50:16;16.20;;;9.10;;
65871;SDS011;52653;50.080;21.992;2023-05-10T04:53:10;13.80;;;9.10;;
65871;SDS011;52653;50.080;21.992;2023-05-10T04:56:04;14.40;;;9.30;;
65871;SDS011;52653;50.080;21.992;2023-05-10T04:58:59;11.50;;;8.80;;
65871;SDS011;52653;50.080;21.992;2023-05-10T05:01:37;12.80;;;9.00;;
65871;SDS011;52653;50.080;21.992;2023-05-10T05:04:30;12.70;;;9.00;;
65871;SDS011;52653;50.080;21.992;2023-05-10T05:07:23;14.70;;;9.40;;
65871;SDS011;52653;50.080;21.992;2023-05-10T05:10:16;11.60;;;8.70;;
65871;SDS011;52653;50.080;21.992;2023-05-10T05:13:00;13.00;;;9.50;;
65871;SDS011;52653;50.080;21.992;2023-05-10T05:15:54;11.30;;;8.60;;
65871;SDS011;52653;50.080;21.992;2023-05-10T05:18:46;15.80;;;9.70;;
65871;SDS011;52653;50.080;21.992;2023-05-10T05:21:40;15.50;;;9.80;;
65871;SDS011;52653;50.080;21.992;2023-05-10T05:24:15;13.00;;;9.00;;
65871;SDS011;52653;50.080;21.992;2023-05-10T05:27:08;11.30;;;9.00;;
65871;SDS011;52653;50.080;21.992;2023-05-10T05:30:02;15.00;;;9.30;;
65871;SDS011;52653;50.080;21.992;2023-05-10T05:32:55;14.10;;;9.00;;
65871;SDS011;52653;50.080;21.992;2023-05-10T05:35:48;13.70;;;8.90;;
65871;SDS011;52653;50.080;21.992;2023-05-10T05:38:31;15.60;;;8.60;;
65871;SDS011;52653;50.080;21.992;2023-05-10T05:41:23;14.70;;;8.90;;
65871;SDS011;52653;50.080;21.992;2023-05-10T05:44:08;13.10;;;8.90;;
65871;SDS011;52653;50.080;21.992;2023-05-10T05:47:03;13.60;;;8.60;;
65871;SDS011;52653;50.080;21.992;2023-05-10T05:49:55;12.20;;;8.30;;
65871;SDS011;52653;50.080;21.992;2023-05-10T05:52:48;15.30;;;8.30;;
65871;SDS011;52653;50.080;21.992;2023-05-10T05:55:45;13.40;;;8.20;;
65871;SDS011;52653;50.080;21.992;2023-05-10T05:58:54;11.30;;;7.80;;
65871;SDS011;52653;50.080;21.992;2023-05-10T06:01:47;11.60;;;8.00;;
65871;SDS011;52653;50.080;21.992;2023-05-10T06:04:44;10.40;;;7.60;;
65871;SDS011;52653;50.080;21.992;2023-05-10T06:07:37;8.70;;;5.90;;
65871;SDS011;52653;50.080;21.992;2023-05-10T06:10:33;10.90;;;7.10;;
65871;SDS011;52653;50.080;21.992;2023-05-10T06:13:26;10.30;;;6.20;;
65871;SDS011;52653;50.080;21.992;2023-05-10T06:16:07;10.80;;;6.40;;
65871;SDS011;52653;50.080;21.992;2023-05-10T06:19:00;9.40;;;6.30;;
65871;SDS011;52653;50.080;21.992;2023-05-10T06:21:54;8.50;;;5.80;;
65871;SDS011;52653;50.080;21.992;2023-05-10T06:24:29;9.40;;;6.00;;
65871;SDS011;52653;50.080;21.992;2023-05-10T06:27:05;10.80;;;5.60;;
65871;SDS011;52653;50.080;21.992;2023-05-10T06:29:48;12.80;;;5.90;;
65871;SDS011;52653;50.080;21.992;2023-05-10T06:32:33;10.60;;;5.70;;
65871;SDS011;52653;50.080;21.992;2023-05-10T06:35:27;9.70;;;5.90;;
65871;SDS011;52653;50.080;21.992;2023-05-10T06:38:21;8.90;;;6.10;;
65871;SDS011;52653;50.080;21.992;2023-05-10T06:41:13;9.10;;;5.50;;
65871;SDS011;52653;50.080;21.992;2023-05-10T06:44:06;8.80;;;5.20;;
65871;SDS011;52653;50.080;21.992;2023-05-10T06:47:00;7.30;;;5.00;;
65871;SDS011;52653;50.080;21.992;2023-05-10T06:49:54;7.70;;;4.70;;
65871;SDS011;52653;50.080;21.992;2023-05-10T06:52:36;7.20;;;4.70;;
65871;SDS011;52653;50.080;21.992;2023-05-10T06:55:20;9.50;;;4.90;;
65871;SDS011;52653;50.080;21.992;2023-05-10T06:57:56;7.70;;;4.70;;
65871;SDS011;52653;50.080;21.992;2023-05-10T07:00:41;8.30;;;4.80;;
65871;SDS011;52653;50.080;21.992;2023-05-10T07:03:24;9.50;;;5.00;;
65871;SDS011;52653;50.080;21.992;2023-05-10T07:06:17;7.70;;;5.20;;
65871;SDS011;52653;50.080;21.992;2023-05-10T07:09:22;7.40;;;4.90;;
65871;SDS011;52653;50.080;21.992;2023-05-10T07:12:15;8.00;;;4.70;;
65871;SDS011;52653;50.080;21.992;2023-05-10T07:15:09;7.70;;;5.00;;
65871;SDS011;52653;50.080;21.992;2023-05-10T07:18:03;9.60;;;5.20;;
65871;SDS011;52653;50.080;21.992;2023-05-10T07:20:56;8.90;;;4.70;;
65871;SDS011;52653;50.080;21.992;2023-05-10T07:23:40;7.90;;;4.40;;
65871;SDS011;52653;50.080;21.992;2023-05-10T07:26:34;7.30;;;4.70;;
65871;SDS011;52653;50.080;21.992;2023-05-10T07:29:26;9.90;;;4.60;;
65871;SDS011;52653;50.080;21.992;2023-05-10T07:32:20;7.70;;;4.70;;
65871;SDS011;52653;50.080;21.992;2023-05-10T07:35:13;8.50;;;4.80;;
65871;SDS011;52653;50.080;21.992;2023-05-10T07:37:46;8.00;;;4.30;;
65871;SDS011;52653;50.080;21.992;2023-05-10T07:40:29;8.90;;;4.20;;
65871;SDS011;52653;50.080;21.992;2023-05-10T07:43:14;7.00;;;4.30;;
65871;SDS011;52653;50.080;21.992;2023-05-10T07:45:58;7.00;;;3.90;;
65871;SDS011;52653;50.080;21.992;2023-05-10T07:48:53;8.70;;;4.10;;
65871;SDS011;52653;50.080;21.992;2023-05-10T07:51:46;10.50;;;4.30;;
65871;SDS011;52653;50.080;21.992;2023-05-10T07:54:40;6.50;;;3.70;;
65871;SDS011;52653;50.080;21.992;2023-05-10T07:57:32;6.10;;;3.90;;
65871;SDS011;52653;50.080;21.992;2023-05-10T08:00:18;7.00;;;3.30;;
65871;SDS011;52653;50.080;21.992;2023-05-10T08:02:56;7.30;;;3.80;;
65871;SDS011;52653;50.080;21.992;2023-05-10T08:05:29;6.50;;;3.60;;
65871;SDS011;52653;50.080;21.992;2023-05-10T08:08:24;6.90;;;4.00;;
65871;SDS011;52653;50.080;21.992;2023-05-10T08:11:17;7.40;;;4.50;;
65871;SDS011;52653;50.080;21.992;2023-05-10T08:14:10;7.40;;;3.90;;
65871;SDS011;52653;50.080;21.992;2023-05-10T08:17:23;7.30;;;3.70;;
65871;SDS011;52653;50.080;21.992;2023-05-10T08:20:17;6.70;;;4.10;;
65871;SDS011;52653;50.080;21.992;2023-05-10T08:23:13;7.80;;;3.70;;
65871;SDS011;52653;50.080;21.992;2023-05-10T08:26:06;9.30;;;4.10;;
65871;SDS011;52653;50.080;21.992;2023-05-10T08:29:00;9.20;;;3.70;;
65871;SDS011;52653;50.080;21.992;2023-05-10T08:31:53;7.10;;;3.70;;
65871;SDS011;52653;50.080;21.992;2023-05-10T08:34:48;7.10;;;3.90;;
65871;SDS011;52653;50.080;21.992;2023-05-10T08:37:40;7.30;;;3.80;;
65871;SDS011;52653;50.080;21.992;2023-05-10T08:40:34;7.50;;;3.80;;
65871;SDS011;52653;50.080;21.992;2023-05-10T08:43:27;9.10;;;3.50;;
65871;SDS011;52653;50.080;21.992;2023-05-10T08:46:22;6.20;;;3.50;;
65871;SDS011;52653;50.080;21.992;2023-05-10T08:49:17;6.10;;;3.80;;
65871;SDS011;52653;50.080;21.992;2023-05-10T08:54:58;8.90;;;3.70;;
65871;SDS011;52653;50.080;21.992;2023-05-10T08:57:51;7.70;;;3.60;;
65871;SDS011;52653;50.080;21.992;2023-05-10T09:00:46;6.20;;;3.30;;
65871;SDS011;52653;50.080;21.992;2023-05-10T09:03:40;5.90;;;3.50;;
65871;SDS011;52653;50.080;21.992;2023-05-10T09:06:34;6.30;;;3.10;;
65871;SDS011;52653;50.080;21.992;2023-05-10T09:09:27;7.90;;;3.60;;
65871;SDS011;52653;50.080;21.992;2023-05-10T09:12:00;6.00;;;3.20;;
65871;SDS011;52653;50.080;21.992;2023-05-10T09:14:47;5.80;;;3.10;;
65871;SDS011;52653;50.080;21.992;2023-05-10T09:17:25;5.60;;;3.20;;
65871;SDS011;52653;50.080;21.992;2023-05-10T09:20:19;5.80;;;3.30;;
65871;SDS011;52653;50.080;21.992;2023-05-10T09:23:12;6.00;;;3.60;;
65871;SDS011;52653;50.080;21.992;2023-05-10T09:26:05;6.90;;;3.30;;
65871;SDS011;52653;50.080;21.992;2023-05-10T09:29:00;6.70;;;3.20;;
65871;SDS011;52653;50.080;21.992;2023-05-10T09:31:54;5.60;;;2.70;;
65871;SDS011;52653;50.080;21.992;2023-05-10T09:34:47;5.90;;;3.10;;
65871;SDS011;52653;50.080;21.992;2023-05-10T09:37:45;7.10;;;3.00;;
65871;SDS011;52653;50.080;21.992;2023-05-10T09:40:39;7.00;;;3.20;;
65871;SDS011;52653;50.080;21.992;2023-05-10T09:43:44;6.90;;;3.10;;
65871;SDS011;52653;50.080;21.992;2023-05-10T09:46:37;7.30;;;2.90;;
65871;SDS011;52653;50.080;21.992;2023-05-10T09:49:20;7.10;;;3.10;;
65871;SDS011;52653;50.080;21.992;2023-05-10T09:52:12;5.20;;;3.30;;
65871;SDS011;52653;50.080;21.992;2023-05-10T09:54:55;5.60;;;3.00;;
65871;SDS011;52653;50.080;21.992;2023-05-10T09:57:29;5.90;;;3.10;;
65871;SDS011;52653;50.080;21.992;2023-05-10T10:00:07;5.90;;;3.10;;
65871;SDS011;52653;50.080;21.992;2023-05-10T10:02:41;8.00;;;3.10;;
65871;SDS011;52653;50.080;21.992;2023-05-10T10:05:29;6.30;;;3.60;;
65871;SDS011;52653;50.080;21.992;2023-05-10T10:08:02;5.40;;;3.10;;
65871;SDS011;52653;50.080;21.992;2023-05-10T10:10:36;8.80;;;2.70;;
65871;SDS011;52653;50.080;21.992;2023-05-10T10:13:30;4.80;;;2.80;;
65871;SDS011;52653;50.080;21.992;2023-05-10T10:16:07;4.60;;;2.90;;
65871;SDS011;52653;50.080;21.992;2023-05-10T10:18:42;5.80;;;2.80;;
65871;SDS011;52653;50.080;21.992;2023-05-10T10:21:19;4.40;;;2.70;;
65871;SDS011;52653;50.080;21.992;2023-05-10T10:23:52;8.20;;;3.10;;
65871;SDS011;52653;50.080;21.992;2023-05-10T10:26:27;7.10;;;3.10;;
65871;SDS011;52653;50.080;21.992;2023-05-10T10:29:04;5.20;;;2.80;;
65871;SDS011;52653;50.080;21.992;2023-05-10T10:31:50;4.30;;;2.60;;
65871;SDS011;52653;50.080;21.992;2023-05-10T10:34:28;4.90;;;2.70;;
65871;SDS011;52653;50.080;21.992;2023-05-10T10:37:05;7.30;;;2.90;;
65871;SDS011;52653;50.080;21.992;2023-05-10T10:39:38;5.20;;;3.10;;
65871;SDS011;52653;50.080;21.992;2023-05-10T10:42:13;5.20;;;2.40;;
65871;SDS011;52653;50.080;21.992;2023-05-10T10:45:16;4.50;;;2.50;;
65871;SDS011;52653;50.080;21.992;2023-05-10T10:48:21;5.80;;;2.70;;
65871;SDS011;52653;50.080;21.992;2023-05-10T10:51:16;4.50;;;2.60;;
65871;SDS011;52653;50.080;21.992;2023-05-10T10:54:00;5.00;;;2.80;;
65871;SDS011;52653;50.080;21.992;2023-05-10T10:57:12;5.30;;;2.60;;
65871;SDS011;52653;50.080;21.992;2023-05-10T11:00:24;5.50;;;2.80;;
65871;SDS011;52653;50.080;21.992;2023-05-10T11:03:21;7.00;;;3.20;;
65871;SDS011;52653;50.080;21.992;2023-05-10T11:06:17;7.40;;;2.70;;
65871;SDS011;52653;50.080;21.992;2023-05-10T11:09:23;7.10;;;2.80;;
65871;SDS011;52653;50.080;21.992;2023-05-10T11:12:17;5.90;;;2.90;;
65871;SDS011;52653;50.080;21.992;2023-05-10T11:15:10;6.90;;;2.90;;
65871;SDS011;52653;50.080;21.992;2023-05-10T11:21:08;5.40;;;3.00;;
65871;SDS011;52653;50.080;21.992;2023-05-10T11:24:01;5.90;;;2.70;;
65871;SDS011;52653;50.080;21.992;2023-05-10T11:27:08;5.80;;;3.10;;
65871;SDS011;52653;50.080;21.992;2023-05-10T11:30:06;5.40;;;3.00;;
65871;SDS011;52653;50.080;21.992;2023-05-10T11:32:53;5.80;;;3.00;;
65871;SDS011;52653;50.080;21.992;2023-05-10T11:35:47;5.10;;;3.30;;
65871;SDS011;52653;50.080;21.992;2023-05-10T11:38:40;6.10;;;3.30;;
65871;SDS011;52653;50.080;21.992;2023-05-10T11:41:32;9.40;;;2.90;;
65871;SDS011;52653;50.080;21.992;2023-05-10T11:44:25;6.40;;;3.30;;
65871;SDS011;52653;50.080;21.992;2023-05-10T11:47:22;6.50;;;3.20;;
65871;SDS011;52653;50.080;21.992;2023-05-10T11:50:15;6.50;;;3.00;;
65871;SDS011;52653;50.080;21.992;2023-05-10T11:52:58;4.70;;;2.70;;
65871;SDS011;52653;50.080;21.992;2023-05-10T11:55:51;8.00;;;3.30;;
65871;SDS011;52653;50.080;21.992;2023-05-10T11:58:38;8.40;;;3.00;;
65871;SDS011;52653;50.080;21.992;2023-05-10T12:01:31;4.60;;;2.90;;
65871;SDS011;52653;50.080;21.992;2023-05-10T12:04:25;5.60;;;3.10;;
65871;SDS011;52653;50.080;21.992;2023-05-10T12:07:19;5.60;;;2.90;;
65871;SDS011;52653;50.080;21.992;2023-05-10T12:10:13;5.50;;;2.90;;
65871;SDS011;52653;50.080;21.992;2023-05-10T12:13:11;5.80;;;2.80;;
65871;SDS011;52653;50.080;21.992;2023-05-10T12:16:13;6.40;;;3.20;;
65871;SDS011;52653;50.080;21.992;2023-05-10T12:19:07;4.60;;;2.90;;
65871;SDS011;52653;50.080;21.992;2023-05-10T12:22:00;9.30;;;3.20;;
65871;SDS011;52653;50.080;21.992;2023-05-10T12:24:57;7.10;;;2.90;;
65871;SDS011;52653;50.080;21.992;2023-05-10T12:27:32;6.50;;;3.00;;
65871;SDS011;52653;50.080;21.992;2023-05-10T12:30:27;5.90;;;2.80;;
65871;SDS011;52653;50.080;21.992;2023-05-10T12:33:01;5.70;;;3.00;;
65871;SDS011;52653;50.080;21.992;2023-05-10T12:35:59;5.30;;;2.60;;
65871;SDS011;52653;50.080;21.992;2023-05-10T12:38:59;10.30;;;3.00;;
65871;SDS011;52653;50.080;21.992;2023-05-10T12:42:09;7.50;;;3.50;;
65871;SDS011;52653;50.080;21.992;2023-05-10T12:44:56;6.20;;;3.10;;
65871;SDS011;52653;50.080;21.992;2023-05-10T12:47:49;4.00;;;2.50;;
65871;SDS011;52653;50.080;21.992;2023-05-10T12:50:42;9.00;;;3.00;;
65871;SDS011;52653;50.080;21.992;2023-05-10T12:53:35;8.10;;;3.10;;
65871;SDS011;52653;50.080;21.992;2023-05-10T12:56:31;6.30;;;2.80;;
65871;SDS011;52653;50.080;21.992;2023-05-10T12:59:24;5.60;;;3.60;;
65871;SDS011;52653;50.080;21.992;2023-05-10T13:02:17;6.10;;;3.20;;
65871;SDS011;52653;50.080;21.992;2023-05-10T13:05:12;6.90;;;2.50;;
65871;SDS011;52653;50.080;21.992;2023-05-10T13:08:04;5.80;;;2.70;;
65871;SDS011;52653;50.080;21.992;2023-05-10T13:10:59;5.30;;;2.70;;
65871;SDS011;52653;50.080;21.992;2023-05-10T13:13:53;6.50;;;2.80;;
65871;SDS011;52653;50.080;21.992;2023-05-10T13:16:47;6.40;;;2.80;;
65871;SDS011;52653;50.080;21.992;2023-05-10T13:19:41;5.10;;;2.60;;
65871;SDS011;52653;50.080;21.992;2023-05-10T13:22:36;6.20;;;2.40;;
65871;SDS011;52653;50.080;21.992;2023-05-10T13:25:29;6.10;;;3.00;;
65871;SDS011;52653;50.080;21.992;2023-05-10T13:28:24;6.60;;;2.80;;
65871;SDS011;52653;50.080;21.992;2023-05-10T13:31:17;5.40;;;2.70;;
65871;SDS011;52653;50.080;21.992;2023-05-10T13:34:12;5.30;;;2.80;;
65871;SDS011;52653;50.080;21.992;2023-05-10T13:37:05;5.80;;;2.40;;
65871;SDS011;52653;50.080;21.992;2023-05-10T13:40:00;9.20;;;2.80;;
65871;SDS011;52653;50.080;21.992;2023-05-10T13:42:53;5.60;;;3.10;;
65871;SDS011;52653;50.080;21.992;2023-05-10T13:45:47;5.80;;;2.80;;
65871;SDS011;52653;50.080;21.992;2023-05-10T13:48:32;6.20;;;2.60;;
65871;SDS011;52653;50.080;21.992;2023-05-10T13:51:27;7.40;;;2.50;;
65871;SDS011;52653;50.080;21.992;2023-05-10T13:54:21;4.70;;;2.70;;
65871;SDS011;52653;50.080;21.992;2023-05-10T13:57:07;5.90;;;2.40;;
65871;SDS011;52653;50.080;21.992;2023-05-10T14:00:02;6.10;;;2.30;;
65871;SDS011;52653;50.080;21.992;2023-05-10T14:02:49;7.40;;;2.80;;
65871;SDS011;52653;50.080;21.992;2023-05-10T14:05:32;6.70;;;2.60;;
65871;SDS011;52653;50.080;21.992;2023-05-10T14:08:07;5.80;;;2.80;;
65871;SDS011;52653;50.080;21.992;2023-05-10T14:11:00;3.90;;;2.40;;
65871;SDS011;52653;50.080;21.992;2023-05-10T14:13:53;5.80;;;2.60;;
65871;SDS011;52653;50.080;21.992;2023-05-10T14:16:46;6.20;;;2.70;;
65871;SDS011;52653;50.080;21.992;2023-05-10T14:19:39;6.60;;;2.60;;
65871;SDS011;52653;50.080;21.992;2023-05-10T14:22:33;5.00;;;2.40;;
65871;SDS011;52653;50.080;21.992;2023-05-10T14:25:16;6.60;;;2.50;;
65871;SDS011;52653;50.080;21.992;2023-05-10T14:28:09;5.80;;;2.60;;
65871;SDS011;52653;50.080;21.992;2023-05-10T14:30:46;9.00;;;2.50;;
65871;SDS011;52653;50.080;21.992;2023-05-10T14:33:39;6.10;;;2.80;;
65871;SDS011;52653;50.080;21.992;2023-05-10T14:36:24;6.20;;;2.70;;
65871;SDS011;52653;50.080;21.992;2023-05-10T14:39:17;5.80;;;2.60;;
65871;SDS011;52653;50.080;21.992;2023-05-10T14:42:11;5.00;;;2.60;;
65871;SDS011;52653;50.080;21.992;2023-05-10T14:44:54;6.00;;;2.30;;
65871;SDS011;52653;50.080;21.992;2023-05-10T14:47:47;4.60;;;2.40;;
65871;SDS011;52653;50.080;21.992;2023-05-10T14:50:30;5.10;;;2.50;;
65871;SDS011;52653;50.080;21.992;2023-05-10T14:53:05;5.20;;;2.20;;
65871;SDS011;52653;50.080;21.992;2023-05-10T14:55:38;4.80;;;2.60;;
65871;SDS011;52653;50.080;21.992;2023-05-10T14:58:13;5.80;;;2.40;;
65871;SDS011;52653;50.080;21.992;2023-05-10T15:00:46;5.50;;;2.50;;
65871;SDS011;52653;50.080;21.992;2023-05-10T15:03:22;4.40;;;2.30;;
65871;SDS011;52653;50.080;21.992;2023-05-10T15:06:07;7.60;;;2.40;;
65871;SDS011;52653;50.080;21.992;2023-05-10T15:09:00;5.20;;;2.40;;
65871;SDS011;52653;50.080;21.992;2023-05-10T15:11:43;7.00;;;2.60;;
65871;SDS011;52653;50.080;21.992;2023-05-10T15:14:36;4.60;;;2.10;;
65871;SDS011;52653;50.080;21.992;2023-05-10T15:17:30;5.30;;;2.20;;
65871;SDS011;52653;50.080;21.992;2023-05-10T15:20:23;3.90;;;2.00;;
65871;SDS011;52653;50.080;21.992;2023-05-10T15:23:03;6.10;;;2.70;;
65871;SDS011;52653;50.080;21.992;2023-05-10T15:25:56;5.00;;;2.20;;
65871;SDS011;52653;50.080;21.992;2023-05-10T15:28:42;6.40;;;2.30;;
65871;SDS011;52653;50.080;21.992;2023-05-10T15:31:25;6.00;;;2.40;;
65871;SDS011;52653;50.080;21.992;2023-05-10T15:33:58;7.80;;;4.70;;
65871;SDS011;52653;50.080;21.992;2023-05-10T15:36:31;5.70;;;3.20;;
65871;SDS011;52653;50.080;21.992;2023-05-10T15:39:10;7.40;;;2.50;;
65871;SDS011;52653;50.080;21.992;2023-05-10T15:41:52;7.90;;;2.40;;
65871;SDS011;52653;50.080;21.992;2023-05-10T15:44:45;6.10;;;2.00;;
65871;SDS011;52653;50.080;21.992;2023-05-10T15:47:19;5.00;;;2.50;;
65871;SDS011;52653;50.080;21.992;2023-05-10T15:50:13;5.30;;;2.40;;
65871;SDS011;52653;50.080;21.992;2023-05-10T15:53:06;4.10;;;2.30;;
65871;SDS011;52653;50.080;21.992;2023-05-10T15:55:39;6.10;;;2.30;;
65871;SDS011;52653;50.080;21.992;2023-05-10T15:58:32;6.90;;;2.30;;
65871;SDS011;52653;50.080;21.992;2023-05-10T16:01:16;4.60;;;2.40;;
65871;SDS011;52653;50.080;21.992;2023-05-10T16:03:52;4.50;;;2.10;;
65871;SDS011;52653;50.080;21.992;2023-05-10T16:06:46;7.50;;;2.60;;
65871;SDS011;52653;50.080;21.992;2023-05-10T16:09:39;7.20;;;2.40;;
65871;SDS011;52653;50.080;21.992;2023-05-10T16:12:21;5.00;;;2.30;;
65871;SDS011;52653;50.080;21.992;2023-05-10T16:15:09;5.20;;;2.20;;
65871;SDS011;52653;50.080;21.992;2023-05-10T16:17:45;5.10;;;2.90;;
65871;SDS011;52653;50.080;21.992;2023-05-10T16:20:41;7.40;;;2.70;;
65871;SDS011;52653;50.080;21.992;2023-05-10T16:23:14;5.10;;;2.50;;
65871;SDS011;52653;50.080;21.992;2023-05-10T16:25:49;5.90;;;2.80;;
65871;SDS011;52653;50.080;21.992;2023-05-10T16:28:23;5.80;;;2.50;;
65871;SDS011;52653;50.080;21.992;2023-05-10T16:31:16;6.70;;;2.80;;
65871;SDS011;52653;50.080;21.992;2023-05-10T16:33:49;5.80;;;2.50;;
65871;SDS011;52653;50.080;21.992;2023-05-10T16:36:36;6.10;;;2.80;;
65871;SDS011;52653;50.080;21.992;2023-05-10T16:39:20;6.40;;;3.20;;
65871;SDS011;52653;50.080;21.992;2023-05-10T16:42:13;4.60;;;2.50;;
65871;SDS011;52653;50.080;21.992;2023-05-10T16:44:46;6.30;;;2.60;;
65871;SDS011;52653;50.080;21.992;2023-05-10T16:47:39;4.50;;;2.40;;
65871;SDS011;52653;50.080;21.992;2023-05-10T16:50:26;6.00;;;2.70;;
65871;SDS011;52653;50.080;21.992;2023-05-10T16:52:59;4.60;;;2.60;;